Time;durP1;ratioP1;P1;durP2;ratioP2;P2;SDS_P1;SDS_P2;PMS_P1;PMS_P2;Temp;Humidity;BMP_temperature;BMP_pressure;BME280_temperature;BME280_humidity;BME280_pressure;Samples;Min_cycle;Max_cycle;Signal;HPM_P1;HPM_P2
2023/01/01 00:00:05;;;;;;;332.47;291.77;;;12.70;99.90;;;;;;5007216;28;20320;-79
2023/01/01 00:02:31;;;;;;;331.83;296.38;;;12.60;99.90;;;;;;5009643;28;20721;-79
2023/01/01 00:04:56;;;;;;;286.70;255.17;;;12.80;99.90;;;;;;5008236;28;20190;-79
2023/01/01 00:07:22;;;;;;;350.20;313.40;;;12.70;99.90;;;;;;5009828;28;20469;-78
2023/01/01 00:12:32;;;;;;;332.98;297.30;;;12.70;99.90;;;;;;5009789;28;20208;-79
2023/01/01 00:14:58;;;;;;;319.98;286.88;;;12.60;99.90;;;;;;5005323;28;20274;-78
2023/01/01 00:17:23;;;;;;;245.10;215.47;;;12.80;99.90;;;;;;5009563;28;20282;-78
2023/01/01 00:19:49;;;;;;;199.87;169.40;;;12.90;99.90;;;;;;5009760;28;20201;-78
2023/01/01 00:22:15;;;;;;;230.73;205.63;;;12.40;99.90;;;;;;5019287;28;20202;-79
2023/01/01 00:24:40;;;;;;;186.63;163.90;;;12.50;99.90;;;;;;5023399;28;20194;-79
2023/01/01 00:27:06;;;;;;;185.10;156.43;;;12.30;99.90;;;;;;5013443;28;20321;-79
2023/01/01 00:29:31;;;;;;;163.70;141.40;;;12.90;99.90;;;;;;5013939;28;20197;-78
2023/01/01 00:31:57;;;;;;;173.33;146.93;;;12.30;99.90;;;;;;5012984;28;20343;-78
2023/01/01 00:34:22;;;;;;;172.23;150.23;;;12.30;99.90;;;;;;5009718;28;20829;-78
2023/01/01 00:36:48;;;;;;;146.87;121.87;;;12.10;99.90;;;;;;5011899;28;20193;-78
2023/01/01 00:39:13;;;;;;;130.73;113.60;;;12.60;99.90;;;;;;5007200;28;20693;-77
2023/01/01 00:41:39;;;;;;;129.73;112.20;;;12.00;99.90;;;;;;5011585;28;20199;-78
2023/01/01 00:44:05;;;;;;;141.57;123.73;;;12.20;99.90;;;;;;5012273;28;20193;-79
2023/01/01 00:46:30;;;;;;;134.23;115.33;;;12.60;99.90;;;;;;5012164;28;20244;-79
2023/01/01 00:48:56;;;;;;;131.37;114.20;;;12.20;99.90;;;;;;5006883;28;20268;-79
2023/01/01 00:51:21;;;;;;;138.23;114.57;;;12.10;99.90;;;;;;5012790;28;20286;-79
2023/01/01 00:53:47;;;;;;;124.07;105.27;;;12.20;99.90;;;;;;5012584;28;20708;-78
2023/01/01 00:56:12;;;;;;;97.50;81.90;;;12.00;99.90;;;;;;5006418;28;20939;-79
2023/01/01 00:58:38;;;;;;;77.53;66.47;;;12.20;99.90;;;;;;5011315;28;20187;-79
2023/01/01 01:01:03;;;;;;;75.10;64.50;;;12.10;99.90;;;;;;5012306;28;20202;-79
2023/01/01 01:03:29;;;;;;;60.50;53.83;;;12.00;99.90;;;;;;5011296;28;20198;-79
2023/01/01 01:06:01;;;;;;;72.27;59.60;;;12.50;99.90;;;;;;5010420;28;20183;-78
2023/01/01 01:08:27;;;;;;;61.30;53.45;;;12.40;99.90;;;;;;5012323;28;20771;-79
2023/01/01 01:10:53;;;;;;;65.90;55.60;;;12.20;99.90;;;;;;5009115;28;20194;-78
2023/01/01 01:13:19;;;;;;;57.88;51.28;;;12.00;99.90;;;;;;5012381;28;20197;-78
2023/01/01 01:15:45;;;;;;;55.00;46.80;;;12.50;99.90;;;;;;5011928;28;20178;-79
2023/01/01 01:18:10;;;;;;;57.10;45.63;;;12.70;99.90;;;;;;5008207;28;20190;-79
2023/01/01 01:20:36;;;;;;;56.30;50.07;;;11.80;99.90;;;;;;5015621;28;20440;-78
2023/01/01 01:23:02;;;;;;;52.13;43.37;;;12.60;99.90;;;;;;5016654;28;20207;-78
2023/01/01 01:25:27;;;;;;;50.27;43.97;;;12.60;99.90;;;;;;5006804;28;20340;-78
2023/01/01 01:27:52;;;;;;;52.47;42.77;;;12.40;99.90;;;;;;5011733;28;20221;-78
2023/01/01 01:30:18;;;;;;;45.00;33.20;;;12.70;99.90;;;;;;5012785;28;20194;-77
2023/01/01 01:32:43;;;;;;;33.80;30.13;;;12.30;99.90;;;;;;5005338;28;20207;-78
2023/01/01 01:35:09;;;;;;;44.27;34.10;;;12.10;99.90;;;;;;5009891;28;20183;-77
2023/01/01 01:37:35;;;;;;;41.70;32.77;;;12.60;99.90;;;;;;5011535;28;20230;-77
2023/01/01 01:40:00;;;;;;;47.17;34.67;;;12.30;99.90;;;;;;4999575;28;20197;-78
2023/01/01 01:42:26;;;;;;;49.37;38.50;;;12.70;99.90;;;;;;5012429;28;20703;-78
2023/01/01 01:44:58;;;;;;;50.43;42.30;;;12.40;99.90;;;;;;5018358;28;20236;-78
2023/01/01 01:47:54;;;;;;;55.45;46.88;;;12.40;99.90;;;;;;5007120;28;20294;-78
2023/01/01 01:50:30;;;;;;;51.65;43.05;;;12.40;99.90;;;;;;5011951;28;20179;-78
2023/01/01 01:53:07;;;;;;;45.92;36.13;;;12.40;99.90;;;;;;5012127;28;20702;-78
2023/01/01 01:55:37;;;;;;;49.95;38.85;;;12.10;99.90;;;;;;5009054;28;20198;-78
2023/01/01 01:58:04;;;;;;;40.60;36.15;;;12.10;99.90;;;;;;5011715;28;20266;-78
2023/01/01 02:00:30;;;;;;;36.90;30.13;;;12.30;99.90;;;;;;5008971;28;20568;-78
2023/01/01 02:03:15;;;;;;;33.53;29.83;;;11.90;99.90;;;;;;5009920;28;20219;-78
2023/01/01 02:05:42;;;;;;;41.70;35.72;;;12.10;99.90;;;;;;5004661;28;20186;-79
2023/01/01 02:08:10;;;;;;;39.75;30.73;;;12.00;99.90;;;;;;5011597;28;20206;-79
2023/01/01 02:10:36;;;;;;;40.10;30.63;;;12.20;99.90;;;;;;5010126;28;20245;-79
2023/01/01 02:13:02;;;;;;;44.67;34.20;;;12.00;99.90;;;;;;5011331;28;20199;-79
2023/01/01 02:15:33;;;;;;;37.37;28.80;;;11.80;99.90;;;;;;5011157;28;20266;-78
2023/01/01 02:18:03;;;;;;;33.05;26.05;;;12.10;99.90;;;;;;5010074;28;20201;-78
2023/01/01 02:20:34;;;;;;;37.15;29.52;;;11.70;99.90;;;;;;5008782;28;20197;-78
2023/01/01 02:23:19;;;;;;;38.47;31.27;;;11.60;99.90;;;;;;5012069;28;20210;-78
2023/01/01 02:26:06;;;;;;;34.72;28.13;;;11.70;99.90;;;;;;5009314;28;20182;-78
2023/01/01 02:29:06;;;;;;;32.05;24.88;;;11.60;99.90;;;;;;5011129;28;20214;-79
2023/01/01 02:31:43;;;;;;;31.00;24.80;;;11.70;99.90;;;;;;5009477;28;20202;-78
2023/01/01 02:34:13;;;;;;;18.67;16.48;;;11.60;99.90;;;;;;5008436;28;20200;-79
2023/01/01 02:36:47;;;;;;;24.52;20.95;;;11.70;99.90;;;;;;5010353;28;20183;-79
2023/01/01 02:39:14;;;;;;;23.90;19.65;;;11.90;99.90;;;;;;5005465;28;20197;-78
2023/01/01 02:41:43;;;;;;;12.82;10.73;;;11.40;99.90;;;;;;5005171;28;20706;-79
2023/01/01 02:44:10;;;;;;;15.13;9.70;;;12.00;99.90;;;;;;5011454;28;20178;-79
2023/01/01 02:46:36;;;;;;;13.13;10.73;;;12.20;99.90;;;;;;5011587;28;20215;-78
2023/01/01 02:49:02;;;;;;;18.10;15.83;;;12.60;99.90;;;;;;5005587;28;20721;-79
2023/01/01 02:51:51;;;;;;;19.95;16.10;;;12.70;99.90;;;;;;5010575;28;20230;-78
2023/01/01 02:54:16;;;;;;;18.80;16.85;;;12.70;99.90;;;;;;5005898;28;20245;-78
2023/01/01 02:56:45;;;;;;;15.17;13.47;;;12.50;99.90;;;;;;5007069;28;20206;-78
2023/01/01 03:02:12;;;;;;;14.18;9.60;;;12.50;99.90;;;;;;5008849;28;20228;-78
2023/01/01 03:05:03;;;;;;;9.50;7.70;;;12.40;99.90;;;;;;5010840;28;20186;-79
2023/01/01 03:07:43;;;;;;;12.88;10.80;;;12.50;99.90;;;;;;5009855;28;20202;-79
2023/01/01 03:10:22;;;;;;;14.27;12.60;;;12.80;99.90;;;;;;5006484;28;20190;-78
2023/01/01 03:13:01;;;;;;;14.77;12.38;;;12.70;99.90;;;;;;5010587;28;20260;-77
2023/01/01 03:15:35;;;;;;;13.85;10.75;;;12.80;99.90;;;;;;5010451;28;20210;-77
2023/01/01 03:18:07;;;;;;;12.45;10.90;;;12.50;99.90;;;;;;5005302;28;20237;-78
2023/01/01 03:20:36;;;;;;;11.15;10.05;;;12.60;99.90;;;;;;5009727;28;20648;-78
2023/01/01 03:23:07;;;;;;;14.55;12.35;;;12.60;99.90;;;;;;5012923;28;20241;-78
2023/01/01 03:25:39;;;;;;;12.93;10.70;;;12.80;99.90;;;;;;5006457;28;20248;-78
2023/01/01 03:28:11;;;;;;;14.32;12.68;;;12.50;99.90;;;;;;5010005;28;20278;-78
2023/01/01 03:30:40;;;;;;;18.27;14.20;;;13.00;99.90;;;;;;5010316;28;20179;-78
2023/01/01 03:33:14;;;;;;;15.57;13.38;;;12.80;99.90;;;;;;5007424;28;20203;-78
2023/01/01 03:35:51;;;;;;;14.98;13.40;;;12.20;99.90;;;;;;5010353;28;20196;-77
2023/01/01 03:38:58;;;;;;;17.55;14.50;;;12.00;99.90;;;;;;5008347;28;20182;-79
2023/01/01 03:41:50;;;;;;;19.42;16.42;;;12.00;99.90;;;;;;5001961;28;20242;-78
2023/01/01 03:44:32;;;;;;;18.58;15.70;;;12.00;99.90;;;;;;5008117;28;20201;-78
2023/01/01 03:46:58;;;;;;;18.85;16.50;;;11.30;99.90;;;;;;5008234;28;20550;-78
2023/01/01 03:49:24;;;;;;;17.83;15.43;;;11.10;99.90;;;;;;5002997;28;20187;-79
2023/01/01 03:51:58;;;;;;;18.55;15.40;;;11.90;99.90;;;;;;5008643;28;20206;-78
2023/01/01 03:54:58;;;;;;;19.52;17.27;;;11.60;99.90;;;;;;5006550;28;20183;-78
2023/01/01 03:57:50;;;;;;;17.33;15.40;;;11.50;99.90;;;;;;5012221;28;20260;-78
2023/01/01 04:00:22;;;;;;;18.65;14.70;;;11.10;99.90;;;;;;5020764;28;20194;-78
2023/01/01 04:03:02;;;;;;;20.13;16.40;;;11.50;99.90;;;;;;5011192;28;20221;-79
2023/01/01 04:05:30;;;;;;;15.45;13.82;;;11.10;99.90;;;;;;5013974;28;20235;-78
2023/01/01 04:07:59;;;;;;;14.38;12.77;;;10.60;99.90;;;;;;5013745;28;20204;-79
2023/01/01 04:10:25;;;;;;;16.55;13.88;;;11.00;99.90;;;;;;5012397;28;20186;-79
2023/01/01 04:12:54;;;;;;;17.48;13.30;;;11.40;99.90;;;;;;5013566;28;20214;-78
2023/01/01 04:15:23;;;;;;;16.90;12.52;;;10.80;99.90;;;;;;5013991;28;20182;-78
2023/01/01 04:17:48;;;;;;;15.60;12.82;;;10.60;99.90;;;;;;5011883;28;20279;-78
2023/01/01 04:20:15;;;;;;;17.37;12.67;;;10.80;99.90;;;;;;5004842;28;20270;-78
2023/01/01 04:22:40;;;;;;;14.05;11.63;;;10.70;99.90;;;;;;5019009;28;20267;-78
2023/01/01 04:25:07;;;;;;;13.20;11.80;;;10.50;99.90;;;;;;5007463;28;20655;-79
2023/01/01 04:27:33;;;;;;;12.38;11.00;;;10.60;99.90;;;;;;5012973;28;20205;-78
2023/01/01 04:29:58;;;;;;;15.47;11.17;;;10.80;99.90;;;;;;5011296;28;20184;-79
2023/01/01 04:32:24;;;;;;;11.77;9.73;;;10.70;99.90;;;;;;5013267;28;20230;-79
2023/01/01 04:34:49;;;;;;;13.77;10.03;;;10.60;99.90;;;;;;5013308;28;20239;-79
2023/01/01 04:37:15;;;;;;;10.27;8.90;;;10.90;99.90;;;;;;5011162;28;20188;-78
2023/01/01 04:39:41;;;;;;;10.40;8.47;;;10.80;99.90;;;;;;5003178;28;20201;-78
2023/01/01 04:42:06;;;;;;;9.40;8.00;;;10.80;99.90;;;;;;5010827;28;20209;-79
2023/01/01 04:44:32;;;;;;;9.20;8.20;;;10.80;99.90;;;;;;5012265;28;20454;-78
2023/01/01 04:46:57;;;;;;;10.53;8.70;;;10.90;99.90;;;;;;5011387;28;20633;-78
2023/01/01 04:49:23;;;;;;;9.90;8.40;;;10.80;99.90;;;;;;5011227;28;20544;-78
2023/01/01 04:51:48;;;;;;;8.00;6.80;;;11.10;99.90;;;;;;5012722;28;20293;-79
2023/01/01 04:54:14;;;;;;;9.43;7.50;;;11.10;99.90;;;;;;5009089;28;20182;-79
2023/01/01 04:56:39;;;;;;;9.33;7.70;;;11.30;99.90;;;;;;5010717;28;20546;-77
2023/01/01 04:59:05;;;;;;;9.83;8.00;;;11.00;99.90;;;;;;5010926;28;20194;-78
2023/01/01 05:01:31;;;;;;;7.53;6.77;;;11.60;99.90;;;;;;5011389;28;20229;-79
2023/01/01 05:03:58;;;;;;;10.82;8.50;;;10.90;99.90;;;;;;5012116;28;20726;-79
2023/01/01 05:06:25;;;;;;;10.20;8.80;;;11.10;99.90;;;;;;5010293;28;20189;-78
2023/01/01 05:08:56;;;;;;;12.07;10.80;;;11.50;99.90;;;;;;5010297;28;20211;-78
2023/01/01 05:11:27;;;;;;;13.52;10.57;;;11.00;99.90;;;;;;5011177;28;20611;-79
2023/01/01 05:13:55;;;;;;;13.45;11.50;;;11.00;99.90;;;;;;5012551;28;20306;-78
2023/01/01 05:16:26;;;;;;;14.48;11.00;;;11.20;99.90;;;;;;5010644;28;20184;-80
2023/01/01 05:18:52;;;;;;;12.00;10.65;;;11.00;99.90;;;;;;5008915;28;20331;-80
2023/01/01 05:21:30;;;;;;;11.67;10.47;;;10.80;99.90;;;;;;5011091;28;20689;-79
2023/01/01 05:23:58;;;;;;;11.57;9.20;;;11.00;99.90;;;;;;5006936;28;20434;-78
2023/01/01 05:26:27;;;;;;;10.40;8.93;;;10.70;99.90;;;;;;5025445;28;20320;-78
2023/01/01 05:28:54;;;;;;;10.07;8.18;;;10.90;99.90;;;;;;5010917;28;20582;-79
2023/01/01 05:31:21;;;;;;;10.85;8.13;;;10.70;99.90;;;;;;5006695;28;20618;-78
2023/01/01 05:33:48;;;;;;;15.40;7.45;;;10.90;99.90;;;;;;5008044;28;20181;-80
2023/01/01 05:36:26;;;;;;;6.43;5.75;;;10.80;99.90;;;;;;5009793;28;20192;-78
2023/01/01 05:38:52;;;;;;;9.68;7.05;;;10.90;99.90;;;;;;5009778;28;20189;-78
2023/01/01 05:41:19;;;;;;;6.55;5.75;;;11.30;99.90;;;;;;5010501;28;20200;-79
2023/01/01 05:43:45;;;;;;;8.65;6.82;;;11.40;99.90;;;;;;5011252;28;20189;-79
2023/01/01 05:46:14;;;;;;;7.23;5.80;;;11.20;99.90;;;;;;5009447;28;20200;-79
2023/01/01 05:48:40;;;;;;;9.02;5.43;;;11.20;99.90;;;;;;5012688;28;20799;-78
2023/01/01 05:51:12;;;;;;;5.73;5.10;;;11.60;99.90;;;;;;5011862;28;20283;-78
2023/01/01 05:53:38;;;;;;;9.15;6.20;;;10.80;99.90;;;;;;5011302;28;20468;-78
2023/01/01 05:56:04;;;;;;;6.20;4.68;;;11.80;99.90;;;;;;5005318;28;20886;-78
2023/01/01 05:58:31;;;;;;;7.85;6.50;;;11.40;99.90;;;;;;5026879;28;20602;-79
2023/01/01 06:01:03;;;;;;;7.03;6.15;;;11.40;99.90;;;;;;5016546;28;20201;-79
2023/01/01 06:03:29;;;;;;;5.45;4.95;;;11.40;99.90;;;;;;5009100;28;20205;-79
2023/01/01 06:05:54;;;;;;;7.60;5.40;;;11.20;99.90;;;;;;5010284;28;20185;-79
2023/01/01 06:08:20;;;;;;;10.07;6.73;;;11.70;99.90;;;;;;5011021;28;20233;-79
2023/01/01 06:10:45;;;;;;;7.53;5.63;;;11.30;99.90;;;;;;5007791;28;20237;-79
2023/01/01 06:13:11;;;;;;;7.63;6.10;;;11.60;99.90;;;;;;5010485;28;20236;-79
2023/01/01 06:15:36;;;;;;;5.90;4.67;;;11.40;99.90;;;;;;5008570;28;20692;-78
2023/01/01 06:18:02;;;;;;;6.40;5.70;;;11.20;99.90;;;;;;5008890;28;20196;-78
2023/01/01 06:20:27;;;;;;;5.80;5.20;;;10.90;99.90;;;;;;5005511;28;20611;-78
2023/01/01 06:22:53;;;;;;;7.23;6.10;;;11.10;99.90;;;;;;5018489;28;20607;-78
2023/01/01 06:25:18;;;;;;;6.80;5.70;;;11.40;99.90;;;;;;5010349;28;20189;-78
2023/01/01 06:27:44;;;;;;;6.50;5.27;;;11.10;99.90;;;;;;5011185;28;20209;-78
2023/01/01 06:30:10;;;;;;;8.53;7.63;;;11.30;99.90;;;;;;5013967;28;20194;-78
2023/01/01 06:32:35;;;;;;;7.78;6.30;;;11.20;99.90;;;;;;5003419;28;20252;-79
2023/01/01 06:35:01;;;;;;;6.47;5.60;;;11.20;99.90;;;;;;5010033;28;20607;-78
2023/01/01 06:37:27;;;;;;;6.30;5.70;;;11.00;99.90;;;;;;5010083;28;20479;-78
2023/01/01 06:39:53;;;;;;;8.10;6.38;;;11.20;99.90;;;;;;5009227;28;20244;-78
2023/01/01 06:42:18;;;;;;;7.80;6.20;;;11.00;99.90;;;;;;5007111;28;20235;-78
2023/01/01 06:44:44;;;;;;;6.63;5.90;;;11.30;99.90;;;;;;5009723;28;20690;-78
2023/01/01 06:47:09;;;;;;;7.57;6.57;;;11.30;99.90;;;;;;5010238;28;20214;-78
2023/01/01 06:49:35;;;;;;;7.60;6.77;;;11.00;99.90;;;;;;5003486;28;20311;-80
2023/01/01 06:52:00;;;;;;;8.30;6.73;;;10.60;99.90;;;;;;5008850;28;20231;-78
2023/01/01 06:54:26;;;;;;;9.50;6.53;;;10.80;99.90;;;;;;5005481;28;20193;-78
2023/01/01 06:56:51;;;;;;;7.40;6.17;;;10.70;99.90;;;;;;5009887;28;20181;-79
2023/01/01 06:59:17;;;;;;;5.67;5.10;;;10.80;99.90;;;;;;5011423;28;20281;-79
2023/01/01 07:01:42;;;;;;;5.83;5.23;;;10.80;99.90;;;;;;5016563;28;20270;-79
2023/01/01 07:04:14;;;;;;;5.93;5.30;;;10.70;99.90;;;;;;5003660;28;20195;-79
2023/01/01 07:06:39;;;;;;;5.57;5.07;;;10.60;99.90;;;;;;5005186;28;20189;-79
2023/01/01 07:09:06;;;;;;;6.07;4.90;;;10.70;99.90;;;;;;5007920;28;20216;-78
2023/01/01 07:11:32;;;;;;;9.32;5.25;;;10.80;99.90;;;;;;5010377;28;20205;-79
2023/01/01 07:13:58;;;;;;;6.47;5.60;;;10.60;99.90;;;;;;5007392;28;20190;-78
2023/01/01 07:16:24;;;;;;;5.53;4.63;;;10.70;99.90;;;;;;5009916;28;20999;-78
2023/01/01 07:18:50;;;;;;;5.40;4.75;;;10.60;99.90;;;;;;5008768;28;20936;-78
2023/01/01 07:21:31;;;;;;;6.72;4.68;;;10.40;99.90;;;;;;5008827;28;20227;-79
2023/01/01 07:23:59;;;;;;;4.90;4.40;;;10.60;99.90;;;;;;5012491;28;20184;-78
2023/01/01 07:26:26;;;;;;;6.10;5.03;;;11.20;99.90;;;;;;5007230;28;20184;-78
2023/01/01 07:28:52;;;;;;;5.65;4.25;;;10.70;99.90;;;;;;5002122;28;20236;-78
2023/01/01 07:31:18;;;;;;;5.60;4.20;;;10.90;99.90;;;;;;5014849;28;20286;-78
2023/01/01 07:33:43;;;;;;;5.87;4.33;;;11.20;99.90;;;;;;5014200;28;20444;-79
2023/01/01 07:36:09;;;;;;;7.03;5.20;;;10.70;99.90;;;;;;5014809;28;20223;-78
2023/01/01 07:38:34;;;;;;;4.30;3.80;;;11.10;99.90;;;;;;5004294;28;20198;-79
2023/01/01 07:41:00;;;;;;;5.90;4.23;;;11.10;99.90;;;;;;5004930;28;20303;-79
2023/01/01 07:43:25;;;;;;;5.10;4.10;;;11.10;99.90;;;;;;5014151;28;20185;-78
2023/01/01 07:45:51;;;;;;;5.47;3.70;;;11.40;99.90;;;;;;5013758;28;20205;-78
2023/01/01 07:48:16;;;;;;;6.00;4.60;;;10.90;99.90;;;;;;5012862;28;20613;-79
2023/01/01 07:50:42;;;;;;;9.87;6.17;;;11.30;99.90;;;;;;5014245;28;20182;-78
2023/01/01 07:53:08;;;;;;;7.20;5.40;;;11.10;99.90;;;;;;5012246;28;20241;-79
2023/01/01 07:55:34;;;;;;;6.90;5.10;;;11.40;99.90;;;;;;5007222;28;20284;-78
2023/01/01 07:57:59;;;;;;;6.70;5.10;;;11.30;99.90;;;;;;5010923;28;20298;-77
2023/01/01 08:00:25;;;;;;;13.20;5.30;;;11.50;99.90;;;;;;5010659;28;20494;-78
2023/01/01 08:02:51;;;;;;;5.77;4.60;;;11.50;99.90;;;;;;5011069;28;20229;-78
2023/01/01 08:05:17;;;;;;;6.40;5.40;;;11.60;99.90;;;;;;5015095;28;20787;-79
2023/01/01 08:07:51;;;;;;;6.80;4.93;;;11.50;99.90;;;;;;5013084;28;21037;-79
2023/01/01 08:10:19;;;;;;;5.50;4.90;;;10.90;99.90;;;;;;5010791;28;20193;-79
2023/01/01 08:12:44;;;;;;;6.38;4.82;;;11.60;99.90;;;;;;5013300;28;20675;-78
2023/01/01 08:15:11;;;;;;;4.63;4.00;;;11.20;99.90;;;;;;5013246;28;20198;-78
2023/01/01 08:17:36;;;;;;;6.32;5.00;;;11.60;99.90;;;;;;5013175;28;20277;-78
2023/01/01 08:20:03;;;;;;;4.83;4.43;;;12.00;99.90;;;;;;5008182;28;20660;-78
2023/01/01 08:22:28;;;;;;;5.35;4.82;;;11.50;99.90;;;;;;5017495;28;20453;-78
2023/01/01 08:24:54;;;;;;;7.17;5.27;;;11.40;99.90;;;;;;5011058;28;20244;-78
2023/01/01 08:27:19;;;;;;;5.20;4.70;;;11.60;99.90;;;;;;5013175;28;20670;-79
2023/01/01 08:29:45;;;;;;;5.27;4.63;;;11.80;99.90;;;;;;5013184;28;20197;-78
2023/01/01 08:32:12;;;;;;;5.77;5.10;;;11.30;99.90;;;;;;5011662;28;20270;-78
2023/01/01 08:34:37;;;;;;;6.35;5.32;;;10.90;99.90;;;;;;5011988;28;20189;-79
2023/01/01 08:37:03;;;;;;;6.07;5.13;;;11.80;99.90;;;;;;5013752;28;20230;-78
2023/01/01 08:39:29;;;;;;;7.27;5.40;;;11.30;99.90;;;;;;5011871;28;20191;-78
2023/01/01 08:41:54;;;;;;;5.70;4.90;;;11.40;99.90;;;;;;5012981;28;20248;-79
2023/01/01 08:44:20;;;;;;;6.00;4.53;;;11.90;99.90;;;;;;5012901;28;20592;-79
2023/01/01 08:46:45;;;;;;;7.03;4.93;;;11.40;99.90;;;;;;5011509;28;20182;-79
2023/01/01 08:49:11;;;;;;;8.00;5.63;;;11.90;99.90;;;;;;5011017;28;20211;-79
2023/01/01 08:51:36;;;;;;;5.73;5.17;;;11.60;99.90;;;;;;5011469;28;20304;-78
2023/01/01 08:54:02;;;;;;;5.80;4.40;;;11.90;99.90;;;;;;5009276;28;20186;-78
2023/01/01 08:56:27;;;;;;;8.70;4.60;;;11.70;99.90;;;;;;5004198;28;20188;-78
2023/01/01 08:58:53;;;;;;;5.70;4.10;;;11.70;99.90;;;;;;5012540;28;20192;-78
2023/01/01 09:01:21;;;;;;;5.93;4.23;;;12.20;99.90;;;;;;5010821;28;20203;-78
2023/01/01 09:03:47;;;;;;;7.55;4.80;;;11.90;99.90;;;;;;5009979;28;20251;-78
2023/01/01 09:06:13;;;;;;;5.25;4.75;;;11.70;99.90;;;;;;5008176;28;20551;-78
2023/01/01 09:08:39;;;;;;;6.70;4.63;;;11.90;99.90;;;;;;5012232;28;20217;-78
2023/01/01 09:11:05;;;;;;;6.43;5.50;;;12.10;99.90;;;;;;5009202;28;20628;-79
2023/01/01 09:13:31;;;;;;;6.37;5.27;;;12.20;99.90;;;;;;5012942;28;20269;-78
2023/01/01 09:15:57;;;;;;;6.63;5.20;;;12.40;99.90;;;;;;5011885;28;20487;-78
2023/01/01 09:18:23;;;;;;;6.93;5.18;;;12.50;99.90;;;;;;5004595;28;20408;-78
2023/01/01 09:20:48;;;;;;;5.70;4.47;;;12.70;99.90;;;;;;5005966;28;20274;-78
2023/01/01 09:23:14;;;;;;;8.10;4.50;;;12.50;99.90;;;;;;5012923;28;20426;-78
2023/01/01 09:25:40;;;;;;;6.10;5.00;;;12.80;99.90;;;;;;5010376;28;20183;-78
2023/01/01 09:28:08;;;;;;;7.07;5.43;;;12.90;99.90;;;;;;5011795;28;20754;-78
2023/01/01 09:30:34;;;;;;;8.93;5.20;;;13.30;99.90;;;;;;5016062;28;20211;-78
2023/01/01 09:33:00;;;;;;;5.95;4.95;;;13.10;99.90;;;;;;5009539;28;20198;-78
2023/01/01 09:35:26;;;;;;;7.35;5.25;;;14.10;99.90;;;;;;5009189;28;20258;-79
2023/01/01 09:37:52;;;;;;;7.27;4.80;;;14.10;99.90;;;;;;5012535;28;20325;-78
2023/01/01 09:40:46;;;;;;;5.75;4.50;;;14.90;99.90;;;;;;5009913;28;20191;-79
2023/01/01 09:43:26;;;;;;;7.38;6.53;;;15.20;99.90;;;;;;5011744;28;20225;-78
2023/01/01 09:46:01;;;;;;;7.00;6.07;;;14.80;99.90;;;;;;5011604;28;20606;-79
2023/01/01 09:48:29;;;;;;;5.90;5.40;;;14.60;99.90;;;;;;5010738;28;20230;-78
2023/01/01 09:50:57;;;;;;;7.05;6.35;;;16.00;99.90;;;;;;5008834;28;20679;-78
2023/01/01 09:53:30;;;;;;;6.30;5.70;;;14.50;99.90;;;;;;5026602;28;20182;-78
2023/01/01 09:56:01;;;;;;;6.25;5.65;;;15.20;99.90;;;;;;5005960;28;20186;-78
2023/01/01 09:58:37;;;;;;;6.93;5.25;;;14.20;99.90;;;;;;5011545;28;20675;-78
2023/01/01 10:01:30;;;;;;;6.07;5.20;;;14.90;99.90;;;;;;5010989;28;20190;-79
2023/01/01 10:04:14;;;;;;;5.65;5.10;;;14.80;99.90;;;;;;5010070;28;20202;-79
2023/01/01 10:06:51;;;;;;;7.35;6.60;;;14.90;99.90;;;;;;5005318;28;20666;-79
2023/01/01 10:09:42;;;;;;;7.60;6.07;;;15.80;99.90;;;;;;5009621;28;20578;-80
2023/01/01 10:12:31;;;;;;;7.25;5.85;;;16.30;99.90;;;;;;5011429;28;20207;-78
2023/01/01 10:15:14;;;;;;;9.15;4.97;;;16.60;99.90;;;;;;5005691;28;20175;-79
2023/01/01 10:17:45;;;;;;;6.60;5.70;;;16.90;99.90;;;;;;5011126;28;20193;-79
2023/01/01 10:20:23;;;;;;;5.75;5.20;;;16.90;99.60;;;;;;5006183;28;20232;-78
2023/01/01 10:22:57;;;;;;;8.35;6.22;;;17.00;99.70;;;;;;5012857;28;20229;-78
2023/01/01 10:25:29;;;;;;;7.75;5.90;;;16.80;99.40;;;;;;5008783;28;20191;-78
2023/01/01 10:28:02;;;;;;;8.48;5.28;;;17.40;98.90;;;;;;5010574;28;20203;-78
2023/01/01 10:30:29;;;;;;;6.65;5.55;;;17.30;98.40;;;;;;5010401;28;20175;-78
2023/01/01 10:32:56;;;;;;;5.63;4.45;;;18.20;98.50;;;;;;5010789;28;20206;-78
2023/01/01 10:35:34;;;;;;;7.20;5.55;;;17.80;97.50;;;;;;5006567;28;20191;-78
2023/01/01 10:38:01;;;;;;;8.93;4.90;;;17.80;97.90;;;;;;5011554;28;20183;-79
2023/01/01 10:40:28;;;;;;;8.23;4.60;;;18.10;97.40;;;;;;4999996;28;20536;-77
2023/01/01 10:42:56;;;;;;;6.97;3.78;;;18.30;95.80;;;;;;5009582;28;20922;-78
2023/01/01 10:45:38;;;;;;;7.72;3.85;;;18.70;95.30;;;;;;5010180;28;20198;-80
2023/01/01 10:48:27;;;;;;;4.80;2.80;;;19.40;95.20;;;;;;5002965;28;20758;-79
2023/01/01 10:50:59;;;;;;;3.65;3.08;;;19.40;92.80;;;;;;5005135;28;20183;-79
2023/01/01 10:53:27;;;;;;;4.45;2.97;;;19.80;92.00;;;;;;5009522;28;20210;-78
2023/01/01 10:56:03;;;;;;;3.65;3.35;;;20.00;90.30;;;;;;5003453;28;20236;-78
2023/01/01 10:58:46;;;;;;;3.88;3.30;;;20.20;89.00;;;;;;5010619;28;20793;-78
2023/01/01 11:01:24;;;;;;;3.55;3.00;;;20.10;89.70;;;;;;5009595;28;20202;-79
2023/01/01 11:04:07;;;;;;;3.67;3.03;;;20.40;88.60;;;;;;5008596;28;20615;-78
2023/01/01 11:06:35;;;;;;;4.43;3.03;;;20.30;87.40;;;;;;5010360;28;20269;-79
2023/01/01 11:09:05;;;;;;;3.80;2.73;;;20.60;87.50;;;;;;5014964;28;20214;-79
2023/01/01 11:11:43;;;;;;;3.60;2.75;;;20.70;86.30;;;;;;5009778;28;20446;-79
2023/01/01 11:14:20;;;;;;;2.95;2.65;;;21.10;85.10;;;;;;5011195;28;20608;-79
2023/01/01 11:16:47;;;;;;;3.60;3.10;;;21.00;85.10;;;;;;5010258;28;20197;-79
2023/01/01 11:19:25;;;;;;;5.55;2.75;;;20.90;85.20;;;;;;5008722;28;20183;-79
2023/01/01 11:21:50;;;;;;;3.78;2.70;;;20.70;85.10;;;;;;5011409;28;20663;-79
2023/01/01 11:24:16;;;;;;;4.17;3.03;;;20.90;84.80;;;;;;5006439;28;20191;-79
2023/01/01 11:26:42;;;;;;;3.17;2.45;;;20.80;85.00;;;;;;5007363;28;20650;-79
2023/01/01 11:29:28;;;;;;;4.80;2.80;;;20.40;85.60;;;;;;5011203;28;20215;-79
2023/01/01 11:31:55;;;;;;;2.97;2.65;;;19.90;86.10;;;;;;5008803;28;20252;-78
2023/01/01 11:34:38;;;;;;;3.80;2.92;;;20.40;86.50;;;;;;5006827;28;20175;-79
2023/01/01 11:37:27;;;;;;;4.10;2.97;;;20.50;85.60;;;;;;5009932;28;20187;-79
2023/01/01 11:39:56;;;;;;;5.57;2.80;;;20.50;84.20;;;;;;5001681;28;20187;-79
2023/01/01 11:42:34;;;;;;;5.28;2.55;;;20.50;83.80;;;;;;5009929;28;20316;-80
2023/01/01 11:45:05;;;;;;;6.38;2.65;;;20.00;83.90;;;;;;5009967;28;20187;-78
2023/01/01 11:47:36;;;;;;;3.35;2.38;;;20.50;83.20;;;;;;5009089;28;20214;-79
2023/01/01 11:50:20;;;;;;;7.40;3.15;;;20.50;84.30;;;;;;5014625;28;20179;-78
2023/01/01 11:52:48;;;;;;;3.75;3.08;;;20.00;84.30;;;;;;5009827;28;20198;-79
2023/01/01 11:55:38;;;;;;;3.00;2.10;;;19.80;85.40;;;;;;5004318;28;20202;-79
2023/01/01 11:58:36;;;;;;;4.05;2.90;;;19.70;84.90;;;;;;5008835;28;20186;-79
2023/01/01 12:01:12;;;;;;;4.45;3.00;;;19.50;85.30;;;;;;5003806;28;20191;-79
2023/01/01 12:03:43;;;;;;;3.35;2.55;;;20.00;86.90;;;;;;5006554;28;20186;-79
2023/01/01 12:06:33;;;;;;;6.38;3.72;;;19.80;86.30;;;;;;5010608;28;20214;-79
2023/01/01 12:09:13;;;;;;;4.07;3.40;;;19.60;86.90;;;;;;5008081;28;20226;-79
2023/01/01 12:11:53;;;;;;;3.38;2.65;;;19.80;87.50;;;;;;5006561;28;20694;-79
2023/01/01 12:14:27;;;;;;;4.18;2.75;;;20.10;84.40;;;;;;5013416;28;20182;-79
2023/01/01 12:17:02;;;;;;;5.40;2.70;;;19.70;84.00;;;;;;5015561;28;20182;-79
2023/01/01 12:19:34;;;;;;;5.40;2.40;;;19.80;83.80;;;;;;5010638;28;20186;-79
2023/01/01 12:22:00;;;;;;;3.92;2.58;;;20.10;84.30;;;;;;5021164;28;20572;-79
2023/01/01 12:24:33;;;;;;;4.63;2.33;;;20.10;83.80;;;;;;5004381;28;20181;-78
2023/01/01 12:27:35;;;;;;;7.68;2.72;;;20.40;83.80;;;;;;5017662;28;20261;-79
2023/01/01 12:30:22;;;;;;;5.00;3.75;;;19.90;84.00;;;;;;5012766;28;20610;-79
2023/01/01 12:33:02;;;;;;;2.65;2.45;;;19.90;83.30;;;;;;5010791;28;20195;-79
2023/01/01 12:35:41;;;;;;;4.00;2.30;;;19.90;83.30;;;;;;5010356;28;20182;-79
2023/01/01 12:38:43;;;;;;;3.08;2.30;;;19.90;83.10;;;;;;5013422;28;20214;-79
2023/01/01 12:41:21;;;;;;;6.28;2.47;;;19.60;84.90;;;;;;5003569;28;20207;-79
2023/01/01 12:44:06;;;;;;;4.18;2.35;;;19.50;84.50;;;;;;5014005;28;20190;-78
2023/01/01 12:46:59;;;;;;;4.18;2.50;;;19.40;85.20;;;;;;5012261;28;20660;-79
2023/01/01 12:49:49;;;;;;;3.45;2.78;;;19.20;86.10;;;;;;5011395;28;20706;-78
2023/01/01 12:52:37;;;;;;;7.38;3.00;;;19.10;85.70;;;;;;5009872;28;20206;-79
2023/01/01 12:55:38;;;;;;;3.30;2.08;;;19.10;85.20;;;;;;5016294;28;20187;-79
2023/01/01 12:58:29;;;;;;;5.22;2.65;;;19.00;85.90;;;;;;4993405;28;20922;-79
2023/01/01 13:01:07;;;;;;;7.10;4.45;;;18.80;87.50;;;;;;5012199;28;20221;-79